createdAt,value
2022-10-11T00:03:52.613Z,3.40
2022-10-11T00:08:52.181Z,3.22
2022-10-11T00:13:50.417Z,2.85
2022-10-11T00:18:48.696Z,4.47
2022-10-11T00:23:46.880Z,3.28
2022-10-11T00:28:46.614Z,3.55
2022-10-11T00:33:44.936Z,3.33
2022-10-11T00:38:43.101Z,3.45
2022-10-11T00:43:41.428Z,3.33
2022-10-11T00:48:42.396Z,3.67
2022-10-11T00:53:40.847Z,3.47
2022-10-11T00:58:39.666Z,3.53
2022-10-11T01:03:39.125Z,2.65
2022-10-11T01:08:39.691Z,2.90
2022-10-11T01:13:43.142Z,3.03
2022-10-11T01:18:45.162Z,2.30
2022-10-11T01:24:08.573Z,2.67
2022-10-11T01:29:11.963Z,2.35
2022-10-11T01:34:14.837Z,3.05
2022-10-11T01:39:14.284Z,3.15
2022-10-11T01:44:14.521Z,3.33
2022-10-11T01:49:14.227Z,3.03
2022-10-11T01:54:17.359Z,3.67
2022-10-11T01:59:29.320Z,3.00
2022-10-11T02:04:32.170Z,3.03
2022-10-11T02:09:34.772Z,3.00
2022-10-11T02:14:35.292Z,2.58
2022-10-11T02:19:37.180Z,3.05
2022-10-11T02:24:37.514Z,3.22
2022-10-11T02:29:38.977Z,2.92
2022-10-11T02:34:39.333Z,2.60
2022-10-11T02:39:40.995Z,3.22
2022-10-11T02:44:44.188Z,2.92
2022-10-11T02:49:43.937Z,2.80
2022-10-11T02:54:55.274Z,3.05
2022-10-11T02:59:53.456Z,3.08
2022-10-11T03:04:53.044Z,2.40
2022-10-11T03:09:51.317Z,3.53
2022-10-11T03:14:49.637Z,2.85
2022-10-11T03:19:47.934Z,3.10
2022-10-11T03:24:47.556Z,2.60
2022-10-11T03:29:45.875Z,2.63
2022-10-11T03:34:44.161Z,2.90
2022-10-11T03:39:43.124Z,3.05
2022-10-11T03:44:42.784Z,3.38
2022-10-11T03:49:43.563Z,4.22
2022-10-11T03:54:42.077Z,4.07
2022-10-11T03:59:40.344Z,4.03
2022-10-11T04:04:39.909Z,4.07
2022-10-11T04:09:39.041Z,4.15
2022-10-11T04:14:37.220Z,4.55
2022-10-11T04:19:36.850Z,4.82
2022-10-11T04:24:36.609Z,6.35
2022-10-11T04:29:35.013Z,6.63
2022-10-11T04:34:33.177Z,6.60
2022-10-11T04:39:31.385Z,6.68
2022-10-11T04:44:31.224Z,8.18
2022-10-11T04:49:29.443Z,7.15
2022-10-11T04:54:27.805Z,5.97
2022-10-11T04:59:26.056Z,6.00
2022-10-11T05:04:25.628Z,5.88
2022-10-11T05:09:23.840Z,5.63
2022-10-11T05:14:22.029Z,5.32
2022-10-11T05:19:22.674Z,5.30
2022-10-11T05:24:22.277Z,6.10
2022-10-11T05:29:20.488Z,4.95
2022-10-11T05:34:22.010Z,4.63
2022-10-11T05:39:22.964Z,4.63
2022-10-11T05:44:32.909Z,4.57
2022-10-11T05:49:31.152Z,4.55
2022-10-11T05:54:30.363Z,5.32
2022-10-11T05:59:30.116Z,7.30
2022-10-11T06:04:28.341Z,6.63
2022-10-11T06:09:26.480Z,6.03
2022-10-11T06:14:24.773Z,6.05
2022-10-11T06:19:24.472Z,5.65
2022-10-11T06:24:22.781Z,9.23
2022-10-11T06:29:21.309Z,9.48
2022-10-11T06:34:19.582Z,7.63
2022-10-11T06:39:20.236Z,7.07
2022-10-11T06:44:18.663Z,5.78
2022-10-11T06:49:22.208Z,7.53
2022-10-11T06:54:22.713Z,6.90
2022-10-11T06:59:21.103Z,5.95
2022-10-11T07:04:19.371Z,6.30
2022-10-11T07:09:17.601Z,6.45
2022-10-11T07:14:17.095Z,6.05
2022-10-11T07:19:15.244Z,5.35
2022-10-11T07:24:13.394Z,4.60
2022-10-11T07:29:11.939Z,5.07
2022-10-11T07:34:12.014Z,5.28
2022-10-11T07:39:10.501Z,5.13
2022-10-11T07:44:08.658Z,5.25
2022-10-11T07:49:06.894Z,4.78
2022-10-11T07:54:07.524Z,4.78
2022-10-11T07:59:06.411Z,4.93
2022-10-11T08:04:04.688Z,4.47
2022-10-11T08:09:03.133Z,4.10
2022-10-11T08:14:04.525Z,5.18
2022-10-11T08:19:03.418Z,5.40
2022-10-11T08:24:03.014Z,4.22
2022-10-11T08:29:04.058Z,5.97
2022-10-11T08:34:02.843Z,5.60
2022-10-11T08:39:01.891Z,4.82
2022-10-11T08:44:09.444Z,4.00
2022-10-11T08:49:09.777Z,6.18
2022-10-11T08:54:13.546Z,5.82
2022-10-11T08:59:19.387Z,6.73
2022-10-11T09:04:19.089Z,4.80
2022-10-11T09:09:30.974Z,4.80
2022-10-11T09:14:39.410Z,5.13
2022-10-11T09:19:52.213Z,5.38
2022-10-11T09:24:56.481Z,5.82
2022-10-11T09:29:59.687Z,5.50
2022-10-11T09:35:01.052Z,5.75
2022-10-11T09:40:03.399Z,5.28
2022-10-11T09:45:13.127Z,5.20
2022-10-11T09:50:16.297Z,6.45
2022-10-11T09:55:32.131Z,8.18
2022-10-11T10:00:33.688Z,6.40
2022-10-11T10:05:35.035Z,6.18
2022-10-11T10:10:35.685Z,6.18
2022-10-11T10:15:42.301Z,5.18
2022-10-11T10:20:40.574Z,5.43
2022-10-11T10:25:43.483Z,5.40
2022-10-11T10:30:50.937Z,6.65
2022-10-11T10:35:52.692Z,6.20
2022-10-11T10:40:52.699Z,5.15
2022-10-11T10:46:05.751Z,4.88
2022-10-11T10:51:10.558Z,5.05
2022-10-11T10:56:11.478Z,5.57
2022-10-11T11:01:14.481Z,5.65
2022-10-11T11:06:17.974Z,5.82
2022-10-11T11:11:24.683Z,5.78
2022-10-11T11:16:27.529Z,5.88
2022-10-11T11:21:31.976Z,5.32
2022-10-11T11:31:37.733Z,6.15
2022-10-11T11:36:38.368Z,5.40
2022-10-11T11:41:38.850Z,5.85
2022-10-11T11:46:39.745Z,5.57
2022-10-11T11:51:42.461Z,5.57
2022-10-11T11:56:46.702Z,4.90
2022-10-11T12:01:50.690Z,5.18
2022-10-11T12:13:35.448Z,6.10
2022-10-11T12:36:50.405Z,7.43
2022-10-11T12:42:19.997Z,6.60
2022-10-11T12:47:26.056Z,7.43
2022-10-11T12:52:27.038Z,6.40
2022-10-11T12:57:47.164Z,6.70
2022-10-11T13:02:47.513Z,6.70
2022-10-11T13:07:46.617Z,6.22
2022-10-11T13:12:47.783Z,6.05
2022-10-11T13:17:48.768Z,6.70
2022-10-11T13:22:48.368Z,7.72
2022-10-11T13:27:46.880Z,7.03
2022-10-11T13:32:45.514Z,7.30
2022-10-11T13:37:47.558Z,9.07
2022-10-11T13:42:46.262Z,7.55
2022-10-11T13:47:44.673Z,6.65
2022-10-11T13:52:52.294Z,6.93
2022-10-11T13:57:51.988Z,8.20
2022-10-11T14:02:51.842Z,8.40
2022-10-11T14:07:51.444Z,6.70
2022-10-11T14:12:58.956Z,7.90
2022-10-11T14:17:57.125Z,6.72
2022-10-11T14:22:56.751Z,6.80
2022-10-11T14:27:55.475Z,6.82
2022-10-11T14:32:54.891Z,16.80
2022-10-11T14:38:00.205Z,15.77
2022-10-11T14:42:58.399Z,12.57
2022-10-11T14:47:57.188Z,10.73
2022-10-11T14:52:55.649Z,7.78
2022-10-11T14:57:56.322Z,17.70
2022-10-11T15:02:55.106Z,9.80
2022-10-11T15:07:53.413Z,8.73
2022-10-11T15:12:52.624Z,9.00
2022-10-11T15:17:53.311Z,8.90
2022-10-11T15:22:51.743Z,9.43
2022-10-11T15:27:50.123Z,8.98
2022-10-11T15:32:48.828Z,7.88
2022-10-11T15:37:48.536Z,11.18
2022-10-11T15:42:46.749Z,8.95
2022-10-11T15:47:45.217Z,8.48
2022-10-11T15:52:43.404Z,9.02
2022-10-11T15:57:42.962Z,10.50
2022-10-11T16:02:41.137Z,8.43
2022-10-11T16:07:39.368Z,7.55
2022-10-11T16:12:37.622Z,7.50
2022-10-11T16:17:37.430Z,7.90
2022-10-11T16:22:36.023Z,9.38
2022-10-11T16:27:34.412Z,10.48
2022-10-11T16:32:33.229Z,10.10
2022-10-11T16:37:33.389Z,9.70
2022-10-11T16:42:31.669Z,10.15
2022-10-11T16:47:29.836Z,11.13
2022-10-11T16:52:28.037Z,13.18
2022-10-11T16:57:27.667Z,13.75
2022-10-11T17:02:32.132Z,18.73
2022-10-11T17:07:38.784Z,14.18
2022-10-11T17:12:38.794Z,13.73
2022-10-11T17:17:36.956Z,14.10
2022-10-11T17:22:35.167Z,16.30
2022-10-11T17:27:33.391Z,59.10
2022-10-11T17:32:32.985Z,34.05
2022-10-11T17:37:31.213Z,24.48
2022-10-11T17:42:30.134Z,19.77
2022-10-11T17:47:28.524Z,23.88
2022-10-11T17:52:28.127Z,19.52
2022-10-11T17:57:26.746Z,18.83
2022-10-11T18:02:25.334Z,20.52
2022-10-11T18:07:24.428Z,68.13
2022-10-11T18:12:24.169Z,40.72
2022-10-11T18:17:22.657Z,17.67
2022-10-11T18:22:21.584Z,16.58
2022-10-11T18:27:20.126Z,15.13
2022-10-11T18:32:21.076Z,15.32
2022-10-11T18:37:20.461Z,14.88
2022-10-11T18:42:20.381Z,15.32
2022-10-11T18:47:25.998Z,15.10
2022-10-11T18:52:26.490Z,13.65
2022-10-11T18:57:25.874Z,15.68
2022-10-11T19:02:28.088Z,16.83
2022-10-11T19:07:26.793Z,17.67
2022-10-11T19:12:25.077Z,21.20
2022-10-11T19:17:27.709Z,19.92
2022-10-11T19:22:25.896Z,20.42
2022-10-11T19:27:26.731Z,20.42
2022-10-11T19:32:25.038Z,21.67
2022-10-11T19:37:26.530Z,19.13
2022-10-11T19:42:24.772Z,12.73
2022-10-11T19:47:25.538Z,8.70
2022-10-11T19:52:25.293Z,7.22
2022-10-11T19:57:23.649Z,5.13
2022-10-11T20:02:21.896Z,3.90
2022-10-11T20:07:20.747Z,3.38
2022-10-11T20:12:20.427Z,3.50
2022-10-11T20:17:18.686Z,3.78
2022-10-11T20:22:17.065Z,3.45
2022-10-11T20:27:15.271Z,3.00
2022-10-11T20:32:15.212Z,3.35
2022-10-11T20:37:15.416Z,3.25
2022-10-11T20:42:13.744Z,3.28
2022-10-11T20:47:12.026Z,4.07
2022-10-11T20:52:11.644Z,3.33
2022-10-11T20:57:10.072Z,2.83
2022-10-11T21:02:08.592Z,3.20
2022-10-11T21:07:07.072Z,3.10
2022-10-11T21:12:07.351Z,3.47
2022-10-11T21:17:05.566Z,3.30
2022-10-11T21:22:03.841Z,2.90
2022-10-11T21:27:02.051Z,2.97
2022-10-11T21:32:01.612Z,3.03
2022-10-11T21:37:00.652Z,2.78
2022-10-11T21:41:58.809Z,2.88
2022-10-11T21:47:12.275Z,2.90
2022-10-11T21:52:11.836Z,2.90
2022-10-11T21:57:10.021Z,2.95
2022-10-11T22:02:08.359Z,3.20
2022-10-11T22:07:06.617Z,3.33
2022-10-11T22:12:06.519Z,2.90
2022-10-11T22:17:04.677Z,2.90
2022-10-11T22:22:02.849Z,2.33
2022-10-11T22:27:01.028Z,2.70
2022-10-11T22:32:00.648Z,2.80
2022-10-11T22:36:58.869Z,3.28
2022-10-11T22:41:57.026Z,2.72
2022-10-11T22:46:55.600Z,2.60
2022-10-11T22:51:55.119Z,2.35
2022-10-11T22:56:53.401Z,3.08
2022-10-11T23:01:51.593Z,3.13
2022-10-11T23:06:49.722Z,3.55
2022-10-11T23:11:49.259Z,3.08
2022-10-11T23:16:47.515Z,2.97
2022-10-11T23:21:45.725Z,3.35
2022-10-11T23:26:43.913Z,3.30
2022-10-11T23:31:43.437Z,3.28
2022-10-11T23:36:41.600Z,3.47
2022-10-11T23:41:40.033Z,3.13
2022-10-11T23:46:41.142Z,2.65
2022-10-11T23:51:41.017Z,3.22
2022-10-11T23:56:39.264Z,3.03
